Time;durP1;ratioP1;P1;durP2;ratioP2;P2;SDS_P1;SDS_P2;PMS_P1;PMS_P2;Temp;Humidity;BMP_temperature;BMP_pressure;BME280_temperature;BME280_humidity;BME280_pressure;Samples;Min_cycle;Max_cycle;Signal;HPM_P1;HPM_P2
2022/05/03 00:00:46;;;;;;;31.92;22.20;;;;;;;11.52;68.46;101405.72;5047715;28;20024;-52
2022/05/03 00:03:23;;;;;;;31.35;20.63;;;;;;;11.45;68.10;101388.59;5073250;28;20033;-51
2022/05/03 00:06:09;;;;;;;29.73;20.77;;;;;;;11.62;68.02;101409.00;5073045;28;20362;-51
2022/05/03 00:08:43;;;;;;;32.58;21.42;;;;;;;11.70;67.75;101414.34;5073068;28;20025;-54
2022/05/03 00:11:19;;;;;;;34.50;23.10;;;;;;;11.61;68.03;101401.97;5073023;28;20035;-50
2022/05/03 00:13:56;;;;;;;28.17;20.17;;;;;;;11.63;68.55;101408.00;5055383;28;20032;-54
2022/05/03 00:16:24;;;;;;;35.13;22.20;;;;;;;11.60;68.18;101406.47;5056264;28;20042;-54
2022/05/03 00:18:50;;;;;;;33.83;21.55;;;;;;;11.60;68.87;101411.84;5073248;28;20492;-53
2022/05/03 00:21:16;;;;;;;37.65;22.85;;;;;;;11.35;70.35;101419.22;5073567;28;20055;-55
2022/05/03 00:23:43;;;;;;;33.90;22.50;;;;;;;11.42;70.28;101419.34;5075024;28;20032;-53
2022/05/03 00:26:11;;;;;;;33.00;21.98;;;;;;;11.53;69.12;101416.25;5075041;28;20045;-51
2022/05/03 00:28:38;;;;;;;33.05;20.40;;;;;;;11.54;69.17;101412.56;5073791;28;20056;-54
2022/05/03 00:31:06;;;;;;;38.13;22.33;;;;;;;11.30;71.08;101413.53;5038564;28;20032;-54
2022/05/03 00:33:33;;;;;;;36.00;22.77;;;;;;;11.15;71.83;101402.66;5072989;28;20032;-55
2022/05/03 00:36:00;;;;;;;34.10;21.83;;;;;;;11.31;70.84;101417.91;5073655;28;20028;-53
2022/05/03 00:38:26;;;;;;;34.50;20.55;;;;;;;11.39;70.75;101409.78;5073095;28;20361;-53
2022/05/03 00:40:56;;;;;;;37.75;21.15;;;;;;;11.35;70.94;101411.16;5073405;28;20055;-53
2022/05/03 00:43:49;;;;;;;37.10;20.42;;;;;;;11.27;71.72;101413.88;5074388;28;20054;-55
2022/05/03 00:46:20;;;;;;;30.02;17.45;;;;;;;11.41;70.11;101402.38;5074802;28;20044;-54
2022/05/03 00:49:17;;;;;;;33.95;19.98;;;;;;;11.45;71.02;101416.31;5075205;28;20036;-54
2022/05/03 00:52:06;;;;;;;35.03;19.85;;;;;;;11.55;70.71;101416.94;5077286;28;20491;-51
2022/05/03 00:55:01;;;;;;;42.03;21.83;;;;;;;11.50;71.15;101422.00;5061257;28;20054;-54
2022/05/03 00:57:58;;;;;;;32.95;19.73;;;;;;;11.61;70.55;101420.78;5062392;28;20020;-54
2022/05/03 01:00:25;;;;;;;36.28;20.73;;;;;;;11.52;70.32;101419.16;5079417;28;20032;-52
2022/05/03 01:03:13;;;;;;;42.30;22.85;;;;;;;11.28;72.63;101420.09;5093136;28;20039;-52
2022/05/03 01:06:16;;;;;;;40.65;22.10;;;;;;;11.23;73.02;101412.56;5093031;28;20028;-54
2022/05/03 01:09:03;;;;;;;41.25;22.02;;;;;;;11.27;72.57;101410.34;5081541;28;20028;-55
2022/05/03 01:12:08;;;;;;;37.35;20.48;;;;;;;11.42;71.81;101412.16;5074671;28;20040;-52
2022/05/03 01:15:04;;;;;;;41.53;22.25;;;;;;;11.46;71.84;101412.63;5066561;28;20035;-50
2022/05/03 01:17:40;;;;;;;;;;;;;;;11.53;71.41;101416.25;5081254;28;20035;-54
2022/05/03 01:20:08;;;;;;;36.75;20.02;;;;;;;11.63;70.27;101424.13;5076649;28;19908;-50
2022/05/03 01:23:02;;;;;;;42.80;21.88;;;;;;;11.57;71.18;101425.69;5076894;28;20365;-53
2022/05/03 01:26:06;;;;;;;35.33;19.75;;;;;;;11.48;71.30;101417.81;5081476;28;20472;-51
2022/05/03 01:29:04;;;;;;;42.67;19.95;;;;;;;11.58;71.17;101424.66;5078442;28;20036;-53
2022/05/03 01:31:30;;;;;;;40.05;20.95;;;;;;;11.51;71.14;101415.59;5078845;28;20036;-54
2022/05/03 01:34:01;;;;;;;34.15;18.75;;;;;;;11.40;70.50;101399.88;5077139;28;20452;-52
2022/05/03 01:36:43;;;;;;;33.08;19.83;;;;;;;11.49;71.12;101411.44;5094188;28;20453;-53
2022/05/03 01:39:39;;;;;;;34.17;18.77;;;;;;;11.54;70.94;101417.13;5093592;28;20492;-54
2022/05/03 01:42:19;;;;;;;35.58;20.50;;;;;;;11.28;72.00;101399.44;5064031;28;20043;-57
2022/05/03 01:45:08;;;;;;;36.83;19.45;;;;;;;11.37;71.65;101411.00;5088595;28;20119;-53
2022/05/03 01:47:48;;;;;;;32.40;17.90;;;;;;;11.27;71.76;101388.84;5072832;28;20048;-55
2022/05/03 01:50:41;;;;;;;31.67;18.67;;;;;;;11.21;72.69;101406.50;5073334;28;20047;-54
2022/05/03 01:53:32;;;;;;;35.08;17.95;;;;;;;11.25;72.52;101402.47;5044775;28;20024;-53
2022/05/03 01:56:25;;;;;;;34.60;19.35;;;;;;;11.34;72.29;101404.09;5060845;28;20426;-55
2022/05/03 01:59:22;;;;;;;32.45;18.25;;;;;;;11.08;73.16;101384.72;5061832;28;20036;-54
2022/05/03 02:02:14;;;;;;;38.47;19.83;;;;;;;11.11;73.46;101397.84;5060487;28;20476;-52
2022/05/03 02:04:55;;;;;;;34.45;19.52;;;;;;;11.07;73.68;101404.53;5044918;28;20036;-54
2022/05/03 02:07:34;;;;;;;40.13;20.98;;;;;;;10.89;74.88;101396.72;5076171;28;20029;-54
2022/05/03 02:10:07;;;;;;;38.22;20.02;;;;;;;10.99;74.04;101395.50;5075776;28;20103;-55
2022/05/03 02:12:33;;;;;;;33.70;19.42;;;;;;;11.20;72.93;101396.78;5057030;28;20056;-51
2022/05/03 02:15:06;;;;;;;32.85;19.52;;;;;;;11.27;72.71;101394.22;5057547;28;20060;-50
2022/05/03 02:17:53;;;;;;;39.17;19.98;;;;;;;11.38;72.36;101404.59;5075306;28;20385;-50
2022/05/03 02:20:44;;;;;;;38.38;19.55;;;;;;;11.32;72.45;101387.31;5075387;28;20056;-50
2022/05/03 02:23:50;;;;;;;32.35;17.95;;;;;;;11.40;72.00;101397.19;5057965;28;20028;-52
2022/05/03 02:26:46;;;;;;;37.53;19.58;;;;;;;11.40;71.97;101400.72;5049153;28;20372;-52
2022/05/03 02:29:18;;;;;;;34.63;17.15;;;;;;;11.42;71.52;101400.53;5059970;28;20039;-51
2022/05/03 02:32:04;;;;;;;32.30;17.48;;;;;;;11.39;72.05;101403.59;5040608;28;20028;-49
2022/05/03 02:34:53;;;;;;;29.95;17.55;;;;;;;11.31;72.21;101403.59;5060092;28;20115;-51
2022/05/03 02:37:23;;;;;;;26.88;16.83;;;;;;;11.24;71.90;101385.50;5073481;28;20058;-50
2022/05/03 02:40:07;;;;;;;23.75;14.50;;;;;;;11.14;72.40;101386.72;5074901;28;20033;-51
2022/05/03 02:42:34;;;;;;;29.42;16.92;;;;;;;11.20;72.93;101399.47;5075378;28;20086;-53
2022/05/03 02:45:03;;;;;;;29.15;16.48;;;;;;;11.18;72.65;101410.41;5074841;28;20036;-50
2022/05/03 02:50:42;;;;;;;26.00;15.52;;;;;;;11.18;72.03;101401.47;5077532;28;20098;-49
2022/05/03 02:53:14;;;;;;;30.95;15.57;;;;;;;11.10;72.26;101382.69;5039983;28;20032;-55
2022/05/03 02:55:50;;;;;;;24.90;15.05;;;;;;;11.16;72.74;101400.81;5074752;28;20031;-54
2022/05/03 02:58:51;;;;;;;24.63;13.85;;;;;;;11.16;72.84;101400.81;5074349;28;20461;-52
2022/05/03 03:01:48;;;;;;;27.95;15.63;;;;;;;11.09;72.69;101407.91;5061707;28;20051;-57
2022/05/03 03:04:43;;;;;;;25.63;15.73;;;;;;;11.05;73.14;101394.00;5059360;28;20036;-54
2022/05/03 03:07:12;;;;;;;;;;;;;;;11.07;73.14;101407.22;5061287;28;20032;-52
2022/05/03 03:09:47;;;;;;;28.95;14.15;;;;;;;11.08;72.32;101408.91;5039763;28;19994;-51
2022/05/03 03:12:35;;;;;;;23.05;12.35;;;;;;;11.07;72.50;101402.72;5056484;28;20039;-52
2022/05/03 03:15:07;;;;;;;28.70;15.20;;;;;;;11.08;72.20;101406.25;5073824;28;20111;-52
2022/05/03 03:17:38;;;;;;;40.85;18.92;;;;;;;11.07;72.86;101404.53;5055674;28;20023;-50
2022/05/03 03:20:12;;;;;;;39.53;16.85;;;;;;;10.85;72.76;101372.06;5072285;28;20361;-51
2022/05/03 03:22:41;;;;;;;27.40;16.77;;;;;;;11.05;72.92;101404.75;5074120;28;20434;-51
2022/05/03 03:25:08;;;;;;;37.50;17.85;;;;;;;10.95;73.61;101401.41;5074147;28;20036;-53
2022/05/03 03:27:35;;;;;;;39.58;18.00;;;;;;;10.84;73.98;101402.59;5055254;28;20029;-50
2022/05/03 03:30:04;;;;;;;31.17;17.17;;;;;;;10.91;73.55;101400.09;5073227;28;20043;-51
2022/05/03 03:32:30;;;;;;;42.60;20.52;;;;;;;10.79;73.85;101404.97;5073366;28;20468;-50
2022/05/03 03:34:59;;;;;;;42.55;18.02;;;;;;;10.63;74.29;101379.00;5055339;28;20490;-50
2022/05/03 03:37:28;;;;;;;33.83;17.02;;;;;;;10.88;73.18;101400.41;5056209;28;20056;-49
2022/05/03 03:39:54;;;;;;;35.97;17.48;;;;;;;10.93;73.67;101406.94;5073369;28;20032;-49
2022/05/03 03:42:20;;;;;;;30.30;16.73;;;;;;;10.91;72.81;101390.16;5073519;28;20028;-51
2022/05/03 03:44:47;;;;;;;38.10;16.42;;;;;;;10.96;72.79;101412.00;5059907;28;20055;-50
2022/05/03 03:47:14;;;;;;;36.30;19.50;;;;;;;10.92;73.11;101407.13;5093737;28;20455;-50
2022/05/03 03:49:41;;;;;;;34.80;18.70;;;;;;;10.90;73.59;101395.69;5094091;28;20048;-50
2022/05/03 03:52:08;;;;;;;37.28;20.08;;;;;;;10.78;74.04;101387.19;5094028;28;20097;-50
2022/05/03 03:54:35;;;;;;;38.47;19.45;;;;;;;10.83;73.63;101390.19;5075736;28;20020;-49
2022/05/03 03:57:04;;;;;;;30.65;17.58;;;;;;;10.56;74.59;101364.56;5058879;28;20032;-51
2022/05/03 03:59:31;;;;;;;30.70;18.75;;;;;;;10.69;74.90;101385.53;5093708;28;20505;-49
2022/05/03 04:01:58;;;;;;;38.65;18.85;;;;;;;10.81;74.08;101394.91;5075585;28;20527;-50
2022/05/03 04:04:32;;;;;;;37.40;18.45;;;;;;;10.67;74.93;101401.81;5075130;28;20062;-50
2022/05/03 04:06:59;;;;;;;29.58;17.20;;;;;;;10.73;74.10;101392.22;5093553;28;20360;-50
2022/05/03 04:09:25;;;;;;;29.98;17.25;;;;;;;10.58;75.13;101389.41;5075408;28;20364;-50
2022/05/03 04:11:51;;;;;;;25.80;15.65;;;;;;;10.69;74.10;101394.41;5075028;28;20035;-53
2022/05/03 04:14:17;;;;;;;30.27;15.98;;;;;;;10.64;74.68;101396.78;5057779;28;20060;-50
2022/05/03 04:16:44;;;;;;;25.13;16.42;;;;;;;10.36;75.61;101378.34;5093773;28;20433;-49
2022/05/03 04:19:11;;;;;;;29.13;17.17;;;;;;;10.21;76.51;101377.34;5093774;28;20421;-50
2022/05/03 04:21:37;;;;;;;23.45;16.05;;;;;;;10.36;74.85;101389.09;5058279;28;20032;-50
2022/05/03 04:24:03;;;;;;;26.85;16.08;;;;;;;10.31;75.95;101391.47;5074714;28;20081;-49
2022/05/03 04:26:29;;;;;;;29.88;16.05;;;;;;;10.44;74.84;101393.63;5092768;28;20024;-50
2022/05/03 04:28:57;;;;;;;23.58;14.57;;;;;;;10.36;75.38;101389.09;5093089;28;20030;-50
2022/05/03 04:31:26;;;;;;;23.70;14.68;;;;;;;10.44;74.77;101390.94;5074742;28;20039;-49
2022/05/03 04:33:53;;;;;;;21.08;12.50;;;;;;;10.46;74.45;101395.13;5074857;28;20032;-51
2022/05/03 04:36:19;;;;;;;20.73;12.68;;;;;;;10.54;73.87;101391.59;5058129;28;20027;-52
2022/05/03 04:38:45;;;;;;;29.58;14.57;;;;;;;10.49;74.44;101403.84;5093568;28;20023;-53
2022/05/03 04:41:11;;;;;;;22.25;13.60;;;;;;;10.51;74.22;101408.06;5098321;28;20024;-50
2022/05/03 04:43:37;;;;;;;19.40;13.85;;;;;;;10.52;74.30;101409.72;5099865;28;20042;-50
2022/05/03 04:46:03;;;;;;;23.77;13.90;;;;;;;10.57;73.93;101399.31;5081143;28;20131;-51
2022/05/03 04:48:28;;;;;;;22.00;12.95;;;;;;;10.58;73.03;101411.72;5076229;28;20051;-51
2022/05/03 04:50:54;;;;;;;26.40;13.02;;;;;;;10.44;73.74;101388.28;5073882;28;20042;-50
2022/05/03 04:53:21;;;;;;;24.50;11.80;;;;;;;10.64;73.38;101408.38;5073478;28;20043;-53
2022/05/03 04:55:47;;;;;;;17.45;12.15;;;;;;;10.38;73.83;101395.16;5072845;28;20061;-51
2022/05/03 04:58:13;;;;;;;20.48;12.68;;;;;;;10.36;74.14;101409.75;5054681;28;20086;-50
2022/05/03 05:00:39;;;;;;;22.65;11.90;;;;;;;10.34;74.48;101412.59;5072930;28;20036;-53
2022/05/03 05:03:04;;;;;;;20.40;12.52;;;;;;;10.35;73.94;101400.03;5054386;28;20098;-55
2022/05/03 05:05:30;;;;;;;15.82;11.73;;;;;;;10.56;73.35;101413.75;5021597;28;20025;-53
2022/05/03 05:08:01;;;;;;;16.67;12.23;;;;;;;10.56;72.98;101407.53;5071916;28;20101;-50
2022/05/03 05:10:26;;;;;;;17.98;11.40;;;;;;;10.51;73.47;101408.06;5072760;28;20032;-52
2022/05/03 05:12:54;;;;;;;23.05;11.63;;;;;;;10.62;72.87;101414.91;5072186;28;20028;-54
2022/05/03 05:15:24;;;;;;;16.27;10.77;;;;;;;10.67;72.38;101417.94;5072715;28;20033;-51
2022/05/03 05:17:53;;;;;;;17.75;10.48;;;;;;;10.57;72.93;101415.44;5072205;28;20025;-54
2022/05/03 05:20:19;;;;;;;15.18;10.82;;;;;;;10.65;71.86;101425.31;5072264;28;20033;-53
2022/05/03 05:22:45;;;;;;;16.25;11.20;;;;;;;10.61;71.47;101427.50;5071958;28;20028;-54
2022/05/03 05:25:11;;;;;;;14.98;10.50;;;;;;;10.58;71.66;101427.00;5072735;28;20040;-54
2022/05/03 05:27:37;;;;;;;17.67;11.02;;;;;;;10.63;71.22;101428.19;5076524;28;20032;-54
2022/05/03 05:30:06;;;;;;;16.95;10.63;;;;;;;10.55;71.66;101425.50;5077004;28;20025;-55
2022/05/03 05:32:33;;;;;;;17.30;11.70;;;;;;;10.56;71.33;101434.41;5041879;28;20029;-52
2022/05/03 05:34:59;;;;;;;15.55;11.35;;;;;;;10.46;71.49;101423.84;5076384;28;20044;-53
2022/05/03 05:37:25;;;;;;;15.10;11.85;;;;;;;10.60;70.97;101447.31;5076883;28;20021;-52
2022/05/03 05:39:51;;;;;;;16.88;11.70;;;;;;;10.50;71.32;101449.34;5076502;28;20047;-57
2022/05/03 05:42:17;;;;;;;14.88;10.68;;;;;;;10.33;72.13;101450.38;5076240;28;20028;-53
2022/05/03 05:44:42;;;;;;;15.63;11.65;;;;;;;10.32;72.48;101454.03;5062030;28;20048;-50
2022/05/03 05:47:11;;;;;;;24.92;11.75;;;;;;;10.31;72.54;101449.66;5096305;28;20043;-53
2022/05/03 05:49:37;;;;;;;22.73;13.35;;;;;;;10.35;72.29;101451.88;5096836;28;20050;-52
2022/05/03 05:54:52;;;;;;;19.30;12.27;;;;;;;10.48;71.98;101448.69;5094740;28;20114;-55
2022/05/03 05:57:18;;;;;;;19.30;11.63;;;;;;;10.44;71.68;101434.75;5077865;28;20095;-54
2022/05/03 05:59:44;;;;;;;19.80;11.98;;;;;;;10.39;71.83;101458.56;5077743;28;20028;-52
2022/05/03 06:02:10;;;;;;;15.73;10.98;;;;;;;10.43;72.30;101459.09;5096147;28;20361;-52
2022/05/03 06:04:36;;;;;;;15.77;11.00;;;;;;;10.49;71.55;101463.78;5096347;28;20036;-52
2022/05/03 06:07:02;;;;;;;19.17;11.35;;;;;;;10.56;71.45;101456.72;5096116;28;20086;-55
2022/05/03 06:09:28;;;;;;;12.18;9.98;;;;;;;10.48;71.19;101446.00;5096091;28;20031;-55
2022/05/03 06:11:54;;;;;;;20.27;11.32;;;;;;;10.34;71.53;101449.34;5077551;28;20026;-51
2022/05/03 06:14:20;;;;;;;12.85;9.95;;;;;;;10.48;71.62;101459.41;5095946;28;20063;-56
2022/05/03 06:16:51;;;;;;;13.40;10.63;;;;;;;10.59;71.22;101455.56;5095930;28;20101;-51
2022/05/03 06:19:17;;;;;;;14.57;10.75;;;;;;;10.52;70.86;101452.69;5095476;28;20028;-54
2022/05/03 06:21:44;;;;;;;11.88;9.55;;;;;;;10.48;71.31;101448.69;5077599;28;20056;-51
2022/05/03 06:24:10;;;;;;;13.57;10.18;;;;;;;10.47;71.45;101425.50;5077861;28;20028;-50
2022/05/03 06:26:36;;;;;;;16.25;10.15;;;;;;;10.55;71.00;101428.19;5095386;28;20414;-50
2022/05/03 06:29:05;;;;;;;12.27;9.77;;;;;;;10.77;70.57;101452.66;5095738;28;20032;-51
2022/05/03 06:31:31;;;;;;;12.93;10.02;;;;;;;10.76;70.49;101446.47;5095062;28;20111;-54
2022/05/03 06:33:56;;;;;;;20.13;10.43;;;;;;;10.75;69.89;101458.19;5095596;28;20441;-52
2022/05/03 06:36:22;;;;;;;14.88;10.38;;;;;;;10.62;70.51;101460.56;5094390;28;20028;-52
2022/05/03 06:38:48;;;;;;;10.05;8.52;;;;;;;10.56;71.18;101445.16;5076388;28;20075;-53
2022/05/03 06:41:16;;;;;;;13.35;9.60;;;;;;;10.77;71.34;101460.72;5095348;28;20389;-50
2022/05/03 06:43:42;;;;;;;12.20;10.18;;;;;;;10.92;70.59;101456.34;5095044;28;20055;-51
2022/05/03 06:46:09;;;;;;;17.23;9.55;;;;;;;11.04;69.10;101454.97;5079103;28;20310;-50
2022/05/03 06:48:35;;;;;;;14.05;9.23;;;;;;;10.95;69.94;101463.22;5057911;28;20033;-51
2022/05/03 06:51:01;;;;;;;9.93;8.90;;;;;;;10.98;69.79;101460.19;5075050;28;20035;-52
2022/05/03 06:53:26;;;;;;;9.63;8.20;;;;;;;11.06;69.04;101454.78;5075215;28;20390;-49
2022/05/03 06:56:12;;;;;;;13.75;8.90;;;;;;;11.02;69.06;101470.41;5057578;28;20025;-50
2022/05/03 06:58:50;;;;;;;18.00;9.40;;;;;;;11.06;68.94;101454.78;5076379;28;20051;-50
2022/05/03 07:01:19;;;;;;;16.98;10.35;;;;;;;11.09;68.72;101470.59;5057841;28;20024;-53
2022/05/03 07:03:58;;;;;;;14.73;9.30;;;;;;;11.04;69.07;101479.16;5057686;28;20127;-53
2022/05/03 07:06:24;;;;;;;18.27;9.45;;;;;;;10.98;68.94;101457.50;5058908;28;20025;-51
2022/05/03 07:09:11;;;;;;;10.05;8.25;;;;;;;11.14;69.07;101476.25;5075861;28;20025;-54
2022/05/03 07:11:44;;;;;;;13.80;8.73;;;;;;;11.22;68.51;101480.81;5075540;28;20039;-52
2022/05/03 07:14:30;;;;;;;18.50;8.90;;;;;;;11.20;68.46;101485.50;5057625;28;20488;-54
2022/05/03 07:23:52;;;;;;;15.45;9.15;;;;;;;11.10;67.71;101482.16;5057006;28;20036;-54
2022/05/03 07:26:26;;;;;;;;;;;;;;;11.18;68.47;101484.81;5075824;28;20385;-51
2022/05/03 07:29:01;;;;;;;15.18;9.68;;;;;;;11.16;66.98;101476.09;5057842;28;19912;-54
2022/05/03 07:31:41;;;;;;;14.13;8.93;;;;;;;11.31;67.60;101492.34;5041510;28;20031;-49
2022/05/03 07:34:18;;;;;;;14.82;9.25;;;;;;;11.39;67.51;101493.16;5075978;28;20391;-53
2022/05/03 07:37:02;;;;;;;17.02;10.23;;;;;;;11.35;66.80;101499.91;5058102;28;20533;-52
2022/05/03 07:39:32;;;;;;;16.65;10.23;;;;;;;11.39;66.56;101493.16;5059001;28;20025;-53
2022/05/03 07:42:07;;;;;;;14.07;9.40;;;;;;;11.23;66.93;101471.72;5076723;28;20032;-53
2022/05/03 07:44:55;;;;;;;11.88;9.63;;;;;;;11.39;66.71;101500.41;5076392;28;20029;-50
2022/05/03 07:47:25;;;;;;;16.67;9.65;;;;;;;11.33;66.33;101493.00;5045168;28;20128;-55
2022/05/03 07:50:06;;;;;;;17.05;9.55;;;;;;;11.12;67.56;101488.22;5075856;28;20133;-55
2022/05/03 07:52:32;;;;;;;17.67;10.23;;;;;;;11.17;67.51;101493.91;5059457;28;20029;-53
2022/05/03 07:55:21;;;;;;;15.00;10.15;;;;;;;11.23;67.68;101496.75;5076357;28;20033;-55
2022/05/03 07:58:23;;;;;;;13.88;9.70;;;;;;;11.26;67.23;101482.13;5062523;28;20036;-53
2022/05/03 08:01:11;;;;;;;12.93;9.43;;;;;;;11.53;67.06;101498.81;5012134;28;20032;-56
2022/05/03 08:03:52;;;;;;;15.68;9.45;;;;;;;11.45;66.58;101496.19;5056886;28;20073;-54
2022/05/03 08:06:18;;;;;;;15.70;10.30;;;;;;;11.41;66.53;101472.31;5075010;28;20063;-54
2022/05/03 08:08:48;;;;;;;15.15;10.50;;;;;;;11.50;66.63;101483.06;5057193;28;20459;-52
2022/05/03 08:11:24;;;;;;;13.48;9.32;;;;;;;11.24;66.21;101459.94;5075121;28;20472;-54
2022/05/03 08:14:16;;;;;;;16.38;10.60;;;;;;;11.56;66.67;101493.94;5074196;28;20032;-55
2022/05/03 08:16:42;;;;;;;16.58;10.40;;;;;;;11.42;66.54;101479.38;5074563;28;20074;-52
2022/05/03 08:19:11;;;;;;;14.70;10.27;;;;;;;11.58;66.27;101486.53;5056163;28;20028;-55
2022/05/03 08:21:40;;;;;;;16.30;10.27;;;;;;;11.55;66.01;101489.59;5072923;28;20035;-54
2022/05/03 08:24:11;;;;;;;13.15;9.70;;;;;;;11.26;66.96;101455.25;5073794;28;20024;-54
2022/05/03 08:26:40;;;;;;;12.85;9.18;;;;;;;11.73;65.91;101488.50;5074030;28;20498;-51
2022/05/03 08:29:07;;;;;;;16.13;9.50;;;;;;;11.86;66.02;101487.91;5074059;28;20031;-50
2022/05/03 08:31:36;;;;;;;13.43;9.50;;;;;;;11.97;65.01;101482.16;5055216;28;20029;-51
2022/05/03 08:34:05;;;;;;;18.50;10.00;;;;;;;12.08;64.92;101484.44;5056446;28;20036;-55
2022/05/03 08:36:31;;;;;;;11.18;8.65;;;;;;;12.11;64.72;101494.88;5055986;28;20408;-51
2022/05/03 08:44:29;;;;;;;13.85;9.10;;;;;;;12.18;63.54;101503.06;5038583;28;20093;-52
2022/05/03 08:46:57;;;;;;;12.20;9.15;;;;;;;12.09;64.41;101488.81;5053901;28;20029;-50
2022/05/03 08:49:24;;;;;;;9.57;8.60;;;;;;;12.45;63.85;101508.94;5034967;28;20449;-51
2022/05/03 08:51:52;;;;;;;15.20;8.25;;;;;;;12.23;63.21;101492.59;5052113;28;20044;-54
2022/05/03 08:54:20;;;;;;;12.68;9.40;;;;;;;12.24;64.09;101512.28;5052236;28;20033;-52
2022/05/03 08:56:47;;;;;;;12.20;9.35;;;;;;;12.23;63.49;101505.22;5051911;28;20132;-52
2022/05/03 08:59:13;;;;;;;17.25;9.60;;;;;;;12.14;63.72;101497.19;5052780;28;20028;-54
2022/05/03 09:01:40;;;;;;;13.80;7.97;;;;;;;12.47;63.28;101505.03;5052704;28;20472;-54
2022/05/03 09:04:10;;;;;;;18.52;9.50;;;;;;;12.75;62.75;101509.84;5036628;28;20071;-53
2022/05/03 09:07:09;;;;;;;13.90;9.65;;;;;;;12.79;62.17;101506.59;5036828;28;20044;-54
2022/05/03 09:09:43;;;;;;;12.10;8.45;;;;;;;13.03;61.94;101495.78;5034575;28;20046;-52
2022/05/03 09:12:36;;;;;;;14.30;9.18;;;;;;;13.07;61.63;101508.69;5053728;28;20460;-53
2022/05/03 09:15:06;;;;;;;12.98;9.00;;;;;;;13.27;61.03;101513.56;5035812;28;20136;-54
2022/05/03 09:17:45;;;;;;;14.10;9.30;;;;;;;13.06;60.42;101511.59;5052028;28;20026;-53
2022/05/03 09:26:21;;;;;;;18.55;9.23;;;;;;;13.08;59.39;101493.38;5023705;28;20041;-54
2022/05/03 09:28:56;;;;;;;16.92;9.10;;;;;;;13.16;60.28;101507.59;5052227;28;20066;-52
2022/05/03 09:31:43;;;;;;;17.05;9.73;;;;;;;13.24;59.54;101508.53;5034721;28;20473;-52
2022/05/03 09:34:23;;;;;;;10.15;8.68;;;;;;;13.53;59.00;101505.03;5020364;28;20495;-54
2022/05/03 09:36:55;;;;;;;15.73;10.07;;;;;;;13.53;58.63;101515.81;5051850;28;20131;-54
2022/05/03 09:39:28;;;;;;;17.52;9.55;;;;;;;13.46;58.73;101507.63;5034773;28;20403;-52
2022/05/03 09:42:15;;;;;;;13.40;10.18;;;;;;;13.48;58.18;101507.44;5033773;28;20029;-50
2022/05/03 09:44:58;;;;;;;9.55;8.55;;;;;;;13.73;57.77;101511.50;5040464;28;20485;-56
2022/05/03 09:47:28;;;;;;;12.90;9.80;;;;;;;13.66;58.58;101510.59;5054347;28;20029;-55
2022/05/03 09:49:54;;;;;;;21.70;9.90;;;;;;;13.53;57.93;101496.94;5071943;28;20349;-54
2022/05/03 09:52:29;;;;;;;15.45;10.43;;;;;;;13.50;58.06;101516.19;5070509;28;20077;-54
2022/05/03 09:55:07;;;;;;;16.42;9.23;;;;;;;13.41;58.66;101485.78;5054722;28;20025;-52
2022/05/03 09:57:36;;;;;;;11.50;8.93;;;;;;;13.58;59.29;101509.84;5055397;28;20483;-55
2022/05/03 10:00:04;;;;;;;12.48;8.13;;;;;;;13.46;58.53;101486.03;5055795;28;20064;-51
2022/05/03 10:02:32;;;;;;;13.00;7.15;;;;;;;13.66;58.76;101459.31;5054814;28;20032;-49
2022/05/03 10:04:58;;;;;;;8.45;7.00;;;;;;;13.73;58.11;101479.13;5072850;28;20028;-52
2022/05/03 10:07:26;;;;;;;10.38;8.48;;;;;;;13.77;57.76;101476.03;5072711;28;20114;-50
2022/05/03 10:09:52;;;;;;;12.35;8.20;;;;;;;14.00;57.89;101476.69;5073061;28;20028;-52
2022/05/03 10:12:19;;;;;;;11.13;7.70;;;;;;;14.36;57.25;101499.28;5073935;28;20109;-53
2022/05/03 10:14:47;;;;;;;13.50;7.72;;;;;;;14.53;56.82;101496.16;5076493;28;20104;-60
2022/05/03 10:22:56;;;;;;;8.65;7.78;;;;;;;14.50;56.36;101482.19;5060246;28;20403;-54
2022/05/03 10:25:49;;;;;;;10.68;7.72;;;;;;;14.40;56.42;101484.38;5075768;28;20028;-52
2022/05/03 10:28:16;;;;;;;9.18;7.53;;;;;;;14.51;56.44;101478.47;5043637;28;20481;-55
2022/05/03 10:31:08;;;;;;;11.65;7.65;;;;;;;14.48;54.00;101490.47;5075748;28;20025;-51
2022/05/03 10:33:36;;;;;;;8.85;7.45;;;;;;;14.32;56.77;101491.59;5062458;28;20177;-53
2022/05/03 10:36:23;;;;;;;10.25;7.93;;;;;;;14.45;56.56;101488.19;5057541;28;20107;-54
2022/05/03 10:38:49;;;;;;;10.98;7.75;;;;;;;14.74;55.78;101493.66;5060444;28;20039;-53
2022/05/03 10:41:24;;;;;;;8.23;7.38;;;;;;;14.76;55.76;101497.81;5057034;28;20032;-51
2022/05/03 10:43:49;;;;;;;;;;;;;;;14.84;54.24;101492.28;5075305;28;20024;-52
2022/05/03 10:46:23;;;;;;;7.80;6.70;;;;;;;14.74;55.75;101491.78;5056530;28;20325;-55
2022/05/03 10:49:12;;;;;;;9.95;6.90;;;;;;;14.83;55.30;101487.88;5074741;28;20060;-54
2022/05/03 10:51:39;;;;;;;13.60;6.97;;;;;;;14.70;55.98;101472.41;5059913;28;20113;-53
2022/05/03 10:54:06;;;;;;;12.38;7.80;;;;;;;14.32;56.36;101450.25;5074654;28;20047;-53
2022/05/03 10:56:32;;;;;;;8.18;7.25;;;;;;;14.60;56.18;101479.16;5074258;28;20029;-50
2022/05/03 10:59:15;;;;;;;9.68;7.30;;;;;;;14.29;56.53;101470.34;5074230;28;20039;-52
2022/05/03 11:02:06;;;;;;;12.85;8.20;;;;;;;14.34;56.59;101486.00;5056152;28;20050;-53
2022/05/03 11:04:35;;;;;;;16.73;7.90;;;;;;;14.46;56.88;101484.44;5042970;28;20028;-52
2022/05/03 11:07:01;;;;;;;8.07;7.35;;;;;;;14.59;56.50;101489.16;5072796;28;20031;-53
2022/05/03 11:09:32;;;;;;;8.13;7.28;;;;;;;14.45;56.02;101477.38;5056193;28;20037;-54
2022/05/03 11:12:01;;;;;;;11.82;8.10;;;;;;;14.48;56.72;101473.44;5074214;28;20029;-53
2022/05/03 11:14:47;;;;;;;9.27;8.32;;;;;;;14.73;56.97;101481.16;5072604;28;20062;-54
2022/05/03 11:17:13;;;;;;;11.88;8.25;;;;;;;14.57;57.03;101455.22;5059272;28;20033;-52
2022/05/03 11:19:56;;;;;;;8.90;7.43;;;;;;;15.24;56.70;101480.88;5073916;28;20040;-50
2022/05/03 11:22:29;;;;;;;12.68;8.43;;;;;;;15.72;54.82;101480.06;5072209;28;20031;-50
2022/05/03 11:24:57;;;;;;;11.90;8.35;;;;;;;16.26;53.40;101471.06;5073441;28;20039;-50
2022/05/03 11:27:24;;;;;;;9.77;7.85;;;;;;;16.64;53.48;101471.28;5073390;28;20024;-54
2022/05/03 11:29:57;;;;;;;11.00;7.95;;;;;;;17.04;52.22;101440.59;5073546;28;20037;-53
2022/05/03 11:32:29;;;;;;;8.20;6.75;;;;;;;17.90;50.31;101458.41;5055823;28;20020;-54
2022/05/03 11:35:05;;;;;;;10.50;8.45;;;;;;;17.35;48.29;101461.59;5055759;28;20446;-50
2022/05/03 11:37:31;;;;;;;12.70;9.10;;;;;;;16.80;51.92;101459.16;5073445;28;20099;-56
2022/05/03 11:40:03;;;;;;;13.63;8.40;;;;;;;16.79;51.49;101460.22;5055534;28;20055;-51
2022/05/03 11:42:39;;;;;;;9.90;7.25;;;;;;;17.15;51.20;101445.34;5073510;28;20024;-52
2022/05/03 11:45:06;;;;;;;10.43;8.00;;;;;;;17.51;51.23;101454.00;5066514;28;20087;-52
2022/05/03 11:47:37;;;;;;;8.35;5.82;;;;;;;17.78;50.55;101425.66;5035778;28;20381;-51
2022/05/03 11:50:04;;;;;;;12.52;7.78;;;;;;;17.79;48.89;101442.78;5053522;28;20473;-50
2022/05/03 11:58:02;;;;;;;11.55;8.43;;;;;;;16.74;50.62;101456.47;5038354;28;20023;-51
2022/05/03 12:00:28;;;;;;;9.70;7.78;;;;;;;16.32;51.81;101437.69;5052824;28;20116;-49
2022/05/03 12:03:00;;;;;;;9.88;8.65;;;;;;;15.72;51.76;101418.59;5053112;28;20025;-50
2022/05/03 12:05:26;;;;;;;10.52;8.13;;;;;;;15.38;52.85;101417.66;5034831;28;20029;-51
2022/05/03 12:07:54;;;;;;;10.82;7.50;;;;;;;15.70;53.45;101449.66;5053742;28;20025;-50
2022/05/03 12:10:23;;;;;;;7.47;6.72;;;;;;;15.40;53.89;101444.53;5053628;28;20032;-50
2022/05/03 12:13:12;;;;;;;13.60;7.63;;;;;;;15.66;53.34;101450.03;5054017;28;20037;-51
2022/05/03 12:15:41;;;;;;;10.18;8.05;;;;;;;15.44;54.25;101453.91;5038699;28;20037;-52
2022/05/03 12:18:15;;;;;;;12.38;8.70;;;;;;;15.28;54.29;101442.41;5036003;28;20021;-50